Pastos Bons, Brazil
Current Conditions -  °F | °C
As of 6:00 PM on Friday 24 Oct 2014 (Local Time) from SBTE Reporting Station
Clear Clear  
Wind Chill: 93°   Ceiling: Unl
Heat Index: 94°   Visibility: 6mi
Dew Point: 63°   Wind: 5mph
Humidity: 36%   Direction: 250°WSW
Pressure: 29.71"   Gusts: NA
Location:  6.6°S, 44.08°W
Report Text: SBTE 242100Z 25004KT CAVOK 34/17 Q1006
Loading
Personal Weather Stations






























Interactive Weather Map
Tropical Storm Tracking
New forecast layout! Learn more

10-Day Weather Forecast

Advertisements
Track Severe Weather on mobile